createdAt,value
2023-01-21T00:00:24.475Z,99861.22
2023-01-21T00:03:28.156Z,99863.81
2023-01-21T00:06:37.525Z,99861.00
2023-01-21T00:09:39.811Z,99852.44
2023-01-21T00:12:42.114Z,99852.66
2023-01-21T00:15:52.430Z,99842.38
2023-01-21T00:18:56.743Z,99853.56
2023-01-21T00:22:04.918Z,99851.97
2023-01-21T00:25:07.664Z,99851.19
2023-01-21T00:28:21.006Z,99850.84
2023-01-21T00:31:25.187Z,99856.28
2023-01-21T00:34:36.603Z,99858.63
2023-01-21T00:37:57.887Z,99862.34
2023-01-21T00:41:09.596Z,99869.56
2023-01-21T00:44:13.762Z,99863.03
2023-01-21T00:47:21.690Z,99858.28
2023-01-21T00:50:52.327Z,99852.09
2023-01-21T00:53:57.240Z,99856.84
2023-01-21T00:57:02.806Z,99863.38
2023-01-21T01:00:07.396Z,99865.97
2023-01-21T01:03:13.263Z,99861.34
2023-01-21T01:06:23.170Z,99860.53
2023-01-21T01:09:32.819Z,99862.91
2023-01-21T01:12:38.227Z,99862.44
2023-01-21T01:15:43.482Z,99864.72
2023-01-21T01:18:49.157Z,99870.69
2023-01-21T01:21:51.485Z,99873.06
2023-01-21T01:25:01.111Z,99874.63
2023-01-21T01:28:09.069Z,99874.06
2023-01-21T01:31:14.059Z,99874.06
2023-01-21T01:34:16.430Z,99879.25
2023-01-21T01:37:18.635Z,99873.53
2023-01-21T01:40:23.441Z,99864.16
2023-01-21T01:43:47.833Z,99866.28
2023-01-21T01:46:51.232Z,99869.69
2023-01-21T01:49:55.990Z,99869.44
2023-01-21T01:53:05.186Z,99861.88
2023-01-21T01:56:12.731Z,99860.88
2023-01-21T01:59:15.228Z,99854.66
2023-01-21T02:02:23.059Z,99855.09
2023-01-21T02:05:25.374Z,99856.47
2023-01-21T02:08:28.484Z,99851.06
2023-01-21T02:11:37.146Z,99850.03
2023-01-21T02:14:47.552Z,99842.56
2023-01-21T02:18:17.688Z,99848.78
2023-01-21T02:21:38.411Z,99853.41
2023-01-21T02:25:00.087Z,99855.56
2023-01-21T02:28:07.049Z,99852.16
2023-01-21T02:31:27.093Z,99843.59
2023-01-21T02:35:02.379Z,99854.75
2023-01-21T02:38:15.215Z,99854.56
2023-01-21T02:41:27.924Z,99859.81
2023-01-21T02:44:41.009Z,99864.78
2023-01-21T02:48:14.975Z,99861.97
2023-01-21T02:51:21.083Z,99869.28
2023-01-21T02:54:41.995Z,99867.50
2023-01-21T02:58:02.880Z,99868.50
2023-01-21T03:01:34.877Z,99860.50
2023-01-21T03:05:03.887Z,99858.22
2023-01-21T03:08:18.461Z,99851.69
2023-01-21T03:11:31.907Z,99854.72
2023-01-21T03:15:36.679Z,99852.03
2023-01-21T03:18:46.161Z,99844.72
2023-01-21T03:21:50.403Z,99850.91
2023-01-21T03:24:54.823Z,99857.16
2023-01-21T03:28:02.604Z,99862.09
2023-01-21T03:31:12.630Z,99871.25
2023-01-21T03:34:22.046Z,99871.34
2023-01-21T03:37:43.562Z,99870.88
2023-01-21T03:41:08.080Z,99870.88
2023-01-21T03:44:12.742Z,99874.16
2023-01-21T03:47:39.150Z,99886.69
2023-01-21T03:50:50.017Z,99888.81
2023-01-21T03:53:57.986Z,99899.06
2023-01-21T03:57:03.246Z,99902.22
2023-01-21T04:00:09.340Z,99891.84
2023-01-21T04:03:13.451Z,99883.59
2023-01-21T04:06:25.781Z,99895.31
2023-01-21T04:09:31.907Z,99904.16
2023-01-21T04:12:41.869Z,99914.19
2023-01-21T04:15:44.233Z,99921.44
2023-01-21T04:18:47.692Z,99919.06
2023-01-21T04:21:52.875Z,99922.13
2023-01-21T04:24:57.107Z,99920.78
2023-01-21T04:27:59.337Z,99928.88
2023-01-21T04:31:03.562Z,99936.13
2023-01-21T04:34:06.007Z,99941.06
2023-01-21T04:37:08.958Z,99934.56
2023-01-21T04:40:13.042Z,99940.53
2023-01-21T04:43:19.793Z,99949.91
2023-01-21T04:46:25.819Z,99948.00
2023-01-21T04:49:29.527Z,99959.94
2023-01-21T04:52:31.791Z,99968.22
2023-01-21T04:55:40.243Z,99955.88
2023-01-21T04:58:42.581Z,99965.81
2023-01-21T05:01:49.976Z,99963.03
2023-01-21T05:04:53.395Z,99978.72
2023-01-21T05:08:06.405Z,99984.91
2023-01-21T05:11:15.660Z,99989.31
2023-01-21T05:14:25.004Z,99986.16
2023-01-21T05:17:30.185Z,99998.13
2023-01-21T05:20:35.060Z,100005.31
2023-01-21T05:23:37.417Z,100001.38
2023-01-21T05:26:40.892Z,100000.81
2023-01-21T05:29:43.208Z,100005.34
2023-01-21T05:32:55.075Z,100012.00
2023-01-21T05:35:57.356Z,100011.22
2023-01-21T05:39:00.772Z,100002.06
2023-01-21T05:42:03.245Z,100007.25
2023-01-21T05:45:06.146Z,100013.44
2023-01-21T05:48:11.406Z,100022.03
2023-01-21T05:51:13.860Z,100030.63
2023-01-21T05:54:17.321Z,100038.41
2023-01-21T05:57:25.190Z,100040.00
2023-01-21T06:00:27.462Z,100038.53
2023-01-21T06:03:30.028Z,100039.88
2023-01-21T06:06:32.298Z,100044.84
2023-01-21T06:09:37.663Z,100047.78
2023-01-21T06:12:40.061Z,100043.16
2023-01-21T06:15:45.972Z,100052.06
2023-01-21T06:18:51.066Z,100054.00
2023-01-21T06:21:53.402Z,100050.06
2023-01-21T06:24:56.726Z,100057.72
2023-01-21T06:28:01.718Z,100063.25
2023-01-21T06:31:07.505Z,100071.63
2023-01-21T06:34:12.796Z,100071.16
2023-01-21T06:37:17.997Z,100071.16
2023-01-21T06:40:26.596Z,100082.91
2023-01-21T06:43:29.182Z,100072.50
2023-01-21T06:46:34.253Z,100085.06
2023-01-21T06:49:39.639Z,100092.59
2023-01-21T06:52:46.963Z,100099.41
2023-01-21T06:55:50.963Z,100095.31
2023-01-21T06:59:02.782Z,100097.47
2023-01-21T07:02:05.272Z,100101.88
2023-01-21T07:05:07.957Z,100101.88
2023-01-21T07:08:12.643Z,100107.44
2023-01-21T07:11:24.775Z,100107.97
2023-01-21T07:14:32.289Z,100111.38
2023-01-21T07:17:44.433Z,100118.13
2023-01-21T07:20:52.285Z,100113.63
2023-01-21T07:23:57.981Z,100128.31
2023-01-21T07:27:06.441Z,100130.47
2023-01-21T07:30:16.792Z,100142.22
2023-01-21T07:33:24.880Z,100152.50
2023-01-21T07:36:27.776Z,100153.50
2023-01-21T07:39:35.161Z,100165.38
2023-01-21T07:42:37.386Z,100173.16
2023-01-21T07:45:45.082Z,100179.50
2023-01-21T07:48:51.774Z,100177.13
2023-01-21T07:51:57.943Z,100169.88
2023-01-21T07:55:05.763Z,100182.44
2023-01-21T07:58:10.816Z,100184.13
2023-01-21T08:01:16.750Z,100195.31
2023-01-21T08:04:28.504Z,100189.44
2023-01-21T08:07:34.008Z,100198.03
2023-01-21T08:10:36.277Z,100199.63
2023-01-21T08:13:43.195Z,100195.69
2023-01-21T08:16:50.062Z,100196.34
2023-01-21T08:19:52.303Z,100211.81
2023-01-21T08:22:54.932Z,100206.28
2023-01-21T08:26:02.105Z,100205.59
2023-01-21T08:29:11.472Z,100196.66
2023-01-21T08:32:22.488Z,100199.13
2023-01-21T08:35:26.723Z,100205.69
2023-01-21T08:38:38.116Z,100203.22
2023-01-21T08:41:43.651Z,100215.19
2023-01-21T08:44:51.360Z,100209.84
2023-01-21T08:47:56.938Z,100209.25
2023-01-21T08:51:00.844Z,100216.81
2023-01-21T08:54:07.919Z,100217.59
2023-01-21T08:57:14.489Z,100218.44
2023-01-21T09:00:17.584Z,100223.75
2023-01-21T09:03:25.059Z,100224.88
2023-01-21T09:06:29.479Z,100232.13
2023-01-21T09:09:36.025Z,100234.44
2023-01-21T09:12:43.981Z,100237.59
2023-01-21T09:15:48.079Z,100240.50
2023-01-21T09:18:56.407Z,100235.75
2023-01-21T09:21:58.725Z,100232.66
2023-01-21T09:25:12.066Z,100233.44
2023-01-21T09:28:16.388Z,100238.19
2023-01-21T09:31:26.376Z,100241.00
2023-01-21T09:34:28.863Z,100235.38
2023-01-21T09:37:37.246Z,100233.13
2023-01-21T09:40:49.476Z,100237.22
2023-01-21T09:44:18.798Z,100244.78
2023-01-21T09:47:34.095Z,100242.06
2023-01-21T09:50:42.605Z,100237.03
2023-01-21T09:53:54.682Z,100235.06
2023-01-21T09:57:04.837Z,100226.41
2023-01-21T10:00:25.965Z,100235.13
2023-01-21T10:03:43.098Z,100247.25
2023-01-21T10:06:57.544Z,100242.75
2023-01-21T10:10:20.471Z,100231.72
2023-01-21T10:13:49.326Z,100223.91
2023-01-21T10:17:20.671Z,100231.47
2023-01-21T10:20:25.804Z,100243.13
2023-01-21T10:23:39.141Z,100241.97
2023-01-21T10:26:49.031Z,100240.72
2023-01-21T10:30:02.738Z,100240.03
2023-01-21T10:33:13.686Z,100244.81
2023-01-21T10:36:38.339Z,100247.75
2023-01-21T10:40:03.481Z,100259.16
2023-01-21T10:43:13.570Z,100264.72
2023-01-21T10:46:41.623Z,100260.53
2023-01-21T10:50:04.414Z,100260.53
2023-01-21T10:53:23.545Z,100263.31
2023-01-21T10:56:44.002Z,100261.28
2023-01-21T11:03:12.088Z,100262.47
2023-01-21T11:06:19.739Z,100255.56
2023-01-21T11:09:30.532Z,100263.63
2023-01-21T11:12:42.202Z,100257.53
2023-01-21T11:15:55.049Z,100260.94
2023-01-21T11:19:02.743Z,100261.28
2023-01-21T11:22:19.986Z,100250.44
2023-01-21T11:25:49.162Z,100247.91
2023-01-21T11:29:18.268Z,100247.09
2023-01-21T11:32:26.979Z,100248.66
2023-01-21T11:35:34.997Z,100245.34
2023-01-21T11:38:39.716Z,100246.16
2023-01-21T11:41:52.475Z,100243.56
2023-01-21T11:45:01.536Z,100238.91
2023-01-21T11:48:20.465Z,100239.09
2023-01-21T11:51:26.085Z,100238.81
2023-01-21T11:54:28.338Z,100243.72
2023-01-21T11:57:34.847Z,100232.56
2023-01-21T12:00:37.618Z,100232.84
2023-01-21T12:04:01.027Z,100235.31
2023-01-21T12:07:19.663Z,100239.78
2023-01-21T12:10:36.033Z,100239.47
2023-01-21T12:13:52.205Z,100242.63
2023-01-21T12:17:23.400Z,100248.09
2023-01-21T12:20:41.852Z,100244.56
2023-01-21T12:23:49.647Z,100253.94
2023-01-21T12:27:00.605Z,100252.59
2023-01-21T12:30:29.062Z,100252.03
2023-01-21T12:33:31.293Z,100260.72
2023-01-21T12:36:40.528Z,100254.31
2023-01-21T12:39:56.520Z,100256.03
2023-01-21T12:43:13.824Z,100260.72
2023-01-21T12:46:31.871Z,100264.09
2023-01-21T12:50:07.379Z,100266.16
2023-01-21T12:53:16.787Z,100274.22
2023-01-21T12:56:31.199Z,100275.56
2023-01-21T12:59:47.709Z,100278.94
2023-01-21T13:02:58.556Z,100275.88
2023-01-21T13:07:04.266Z,100286.88
2023-01-21T13:10:25.609Z,100289.72
2023-01-21T13:13:44.253Z,100289.13
2023-01-21T13:16:58.111Z,100288.59
2023-01-21T13:20:03.492Z,100296.09
2023-01-21T13:23:29.308Z,100295.31
2023-01-21T13:26:47.645Z,100298.72
2023-01-21T13:30:03.007Z,100300.97
2023-01-21T13:33:50.613Z,100305.81
2023-01-21T13:37:03.767Z,100316.41
2023-01-21T13:40:49.959Z,100319.38
2023-01-21T13:44:20.260Z,100315.56
2023-01-21T13:47:38.534Z,100323.75
2023-01-21T13:51:09.868Z,100322.09
2023-01-21T13:54:47.154Z,100318.59
2023-01-21T13:58:14.328Z,100321.31
2023-01-21T14:01:47.915Z,100323.81
2023-01-21T14:05:09.193Z,100336.63
2023-01-21T14:08:30.225Z,100339.44
2023-01-21T14:11:48.226Z,100344.66
2023-01-21T14:15:28.933Z,100351.91
2023-01-21T14:18:37.854Z,100357.38
2023-01-21T14:21:48.605Z,100357.34
2023-01-21T14:25:21.530Z,100364.13
2023-01-21T14:28:44.232Z,100346.69
2023-01-21T14:32:21.064Z,100353.44
2023-01-21T14:35:45.355Z,100365.00
2023-01-21T14:39:07.650Z,100372.44
2023-01-21T14:42:26.809Z,100368.56
2023-01-21T14:46:00.148Z,100365.84
2023-01-21T14:49:13.219Z,100379.09
2023-01-21T14:52:21.822Z,100377.75
2023-01-21T14:55:36.904Z,100383.59
2023-01-21T14:58:48.548Z,100391.78
2023-01-21T15:02:22.015Z,100384.41
2023-01-21T15:05:45.505Z,100384.28
2023-01-21T15:08:51.299Z,100386.56
2023-01-21T15:12:00.799Z,100392.44
2023-01-21T15:15:25.067Z,100393.44
2023-01-21T15:19:05.089Z,100390.16
2023-01-21T15:22:39.066Z,100397.50
2023-01-21T15:26:43.454Z,100399.16
2023-01-21T15:30:02.405Z,100403.44
2023-01-21T15:33:15.284Z,100404.91
2023-01-21T15:36:50.392Z,100408.44
2023-01-21T15:40:00.567Z,100410.56
2023-01-21T15:43:25.126Z,100404.25
2023-01-21T15:46:42.610Z,100410.69
2023-01-21T15:50:14.924Z,100422.75
2023-01-21T15:53:55.051Z,100424.34
2023-01-21T15:57:09.361Z,100426.00
2023-01-21T16:00:11.653Z,100431.78
2023-01-21T16:03:36.609Z,100433.72
2023-01-21T16:07:10.117Z,100438.16
2023-01-21T16:10:19.008Z,100436.13
2023-01-21T16:13:40.278Z,100441.31
2023-01-21T16:17:09.824Z,100451.34
2023-01-21T16:20:13.516Z,100455.97
2023-01-21T16:23:21.419Z,100458.81
2023-01-21T16:26:33.163Z,100468.63
2023-01-21T16:29:44.583Z,100470.63
2023-01-21T16:33:14.723Z,100468.50
2023-01-21T16:36:21.127Z,100478.25
2023-01-21T16:39:27.332Z,100475.94
2023-01-21T16:42:36.729Z,100478.91
2023-01-21T16:45:54.377Z,100478.44
2023-01-21T16:49:07.832Z,100476.53
2023-01-21T16:52:20.106Z,100478.16
2023-01-21T16:55:31.096Z,100477.72
2023-01-21T16:58:50.066Z,100472.28
2023-01-21T17:01:59.967Z,100476.13
2023-01-21T17:05:05.222Z,100476.91
2023-01-21T17:08:11.989Z,100478.72
2023-01-21T17:11:14.458Z,100480.06
2023-01-21T17:14:31.650Z,100479.50
2023-01-21T17:17:45.769Z,100479.50
2023-01-21T17:21:06.927Z,100488.31
2023-01-21T17:24:20.292Z,100492.75
2023-01-21T17:27:24.599Z,100484.56
2023-01-21T17:30:33.105Z,100488.31
2023-01-21T17:33:41.990Z,100482.53
2023-01-21T17:36:51.384Z,100486.50
2023-01-21T17:40:24.332Z,100489.13
2023-01-21T17:43:29.202Z,100487.53
2023-01-21T17:46:34.947Z,100497.72
2023-01-21T17:49:40.418Z,100485.81
2023-01-21T17:52:55.102Z,100493.75
2023-01-21T17:56:01.713Z,100500.31
2023-01-21T17:59:04.432Z,100502.69
2023-01-21T18:02:18.543Z,100499.09
2023-01-21T18:05:24.953Z,100496.72
2023-01-21T18:08:27.244Z,100510.28
2023-01-21T18:11:33.551Z,100513.22
2023-01-21T18:14:45.710Z,100520.69
2023-01-21T18:18:00.539Z,100533.03
2023-01-21T18:21:05.279Z,100546.59
2023-01-21T18:24:13.417Z,100547.75
2023-01-21T18:27:17.193Z,100546.97
2023-01-21T18:30:29.797Z,100554.78
2023-01-21T18:33:32.121Z,100548.78
2023-01-21T18:36:38.745Z,100544.13
2023-01-21T18:39:44.989Z,100537.94
2023-01-21T18:42:48.891Z,100546.50
2023-01-21T18:45:53.318Z,100533.31
2023-01-21T18:49:05.873Z,100540.31
2023-01-21T18:52:10.926Z,100552.31
2023-01-21T18:55:20.303Z,100551.28
2023-01-21T18:58:31.036Z,100545.84
2023-01-21T19:01:33.443Z,100542.81
2023-01-21T19:04:35.779Z,100540.66
2023-01-21T19:07:41.209Z,100550.28
2023-01-21T19:10:48.830Z,100552.88
2023-01-21T19:13:54.062Z,100557.28
2023-01-21T19:16:56.348Z,100569.47
2023-01-21T19:20:00.846Z,100560.44
2023-01-21T19:23:03.779Z,100578.66
2023-01-21T19:26:07.457Z,100581.69
2023-01-21T19:29:18.581Z,100591.91
2023-01-21T19:32:22.901Z,100591.91
2023-01-21T19:35:53.837Z,100599.22
2023-01-21T19:39:03.929Z,100607.63
2023-01-21T19:42:08.741Z,100610.81
2023-01-21T19:45:12.128Z,100602.22
2023-01-21T19:48:17.396Z,100601.41
2023-01-21T19:51:19.659Z,100605.81
2023-01-21T19:54:22.097Z,100599.22
2023-01-21T19:57:33.743Z,100592.09
2023-01-21T20:00:39.331Z,100590.53
2023-01-21T20:03:59.289Z,100592.09
2023-01-21T20:07:22.167Z,100592.31
2023-01-21T20:10:30.016Z,100598.75
2023-01-21T20:13:39.726Z,100597.38
2023-01-21T20:16:49.857Z,100595.44
2023-01-21T20:19:52.103Z,100594.06
2023-01-21T20:22:54.359Z,100594.72
2023-01-21T20:26:01.339Z,100601.16
2023-01-21T20:29:07.694Z,100598.53
2023-01-21T20:32:17.678Z,100596.94
2023-01-21T20:35:21.932Z,100607.56
2023-01-21T20:38:35.426Z,100614.16
2023-01-21T20:41:42.961Z,100617.16
2023-01-21T20:44:45.219Z,100613.78
2023-01-21T20:47:56.034Z,100620.56
2023-01-21T20:50:59.740Z,100615.38
2023-01-21T20:54:03.887Z,100616.75
2023-01-21T20:57:14.488Z,100625.34
2023-01-21T21:00:33.974Z,100616.31
2023-01-21T21:03:39.333Z,100613.50
2023-01-21T21:06:45.710Z,100619.50
2023-01-21T21:09:48.034Z,100620.06
2023-01-21T21:12:57.585Z,100620.06
2023-01-21T21:16:30.018Z,100622.25
2023-01-21T21:19:35.422Z,100623.00
2023-01-21T21:22:43.231Z,100617.25
2023-01-21T21:25:48.960Z,100615.66
2023-01-21T21:28:54.916Z,100621.00
2023-01-21T21:32:01.519Z,100621.22
2023-01-21T21:35:11.687Z,100627.59
2023-01-21T21:38:26.073Z,100619.19
2023-01-21T21:41:46.921Z,100619.41
2023-01-21T21:44:49.161Z,100620.78
2023-01-21T21:48:10.174Z,100619.78
2023-01-21T21:51:19.532Z,100631.75
2023-01-21T21:54:33.847Z,100620.63
2023-01-21T21:57:44.489Z,100642.97
2023-01-21T22:00:54.168Z,100629.16
2023-01-21T22:04:01.598Z,100633.00
2023-01-21T22:07:06.108Z,100642.72
2023-01-21T22:10:12.786Z,100637.34
2023-01-21T22:13:15.003Z,100628.50
2023-01-21T22:16:28.267Z,100626.72
2023-01-21T22:19:30.522Z,100631.69
2023-01-21T22:22:33.898Z,100627.13
2023-01-21T22:25:36.193Z,100620.03
2023-01-21T22:28:41.543Z,100615.31
2023-01-21T22:31:51.091Z,100617.09
2023-01-21T22:34:57.984Z,100624.25
2023-01-21T22:38:07.532Z,100624.47
2023-01-21T22:41:14.803Z,100635.22
2023-01-21T22:44:19.787Z,100633.44
2023-01-21T22:47:38.093Z,100626.44
2023-01-21T22:50:46.164Z,100620.19
2023-01-21T22:53:49.914Z,100611.38
2023-01-21T22:56:54.540Z,100611.97
2023-01-21T23:00:02.547Z,100606.53
2023-01-21T23:03:11.123Z,100606.31
2023-01-21T23:06:23.176Z,100586.16
2023-01-21T23:09:33.762Z,100600.56
2023-01-21T23:12:41.372Z,100599.31
2023-01-21T23:15:45.172Z,100614.47
2023-01-21T23:18:53.623Z,100621.03
2023-01-21T23:21:55.868Z,100621.03
2023-01-21T23:24:58.124Z,100626.84
2023-01-21T23:28:01.415Z,100637.25
2023-01-21T23:31:15.498Z,100627.84
2023-01-21T23:34:22.921Z,100622.97
2023-01-21T23:37:25.180Z,100632.25
2023-01-21T23:40:34.982Z,100635.66
2023-01-21T23:43:44.185Z,100630.22
2023-01-21T23:46:49.362Z,100645.41
2023-01-21T23:49:51.604Z,100643.81
2023-01-21T23:52:55.322Z,100634.44
2023-01-21T23:56:21.416Z,100635.00
2023-01-21T23:59:26.141Z,100638.59
